createdAt,value
2023-03-21T00:02:21.215Z,7.70
2023-03-21T00:04:53.743Z,7.65
2023-03-21T00:07:25.456Z,10.60
2023-03-21T00:10:08.670Z,10.10
2023-03-21T00:12:50.550Z,6.68
2023-03-21T00:15:24.913Z,9.50
2023-03-21T00:18:03.631Z,8.70
2023-03-21T00:20:34.459Z,9.43
2023-03-21T00:23:04.752Z,6.88
2023-03-21T00:25:35.626Z,9.32
2023-03-21T00:28:09.067Z,8.25
2023-03-21T00:30:39.379Z,9.77
2023-03-21T00:33:21.986Z,7.72
2023-03-21T00:36:02.615Z,7.93
2023-03-21T00:38:37.998Z,7.57
2023-03-21T00:41:23.221Z,12.50
2023-03-21T00:44:04.749Z,11.07
2023-03-21T00:46:45.228Z,12.07
2023-03-21T00:49:17.466Z,8.30
2023-03-21T00:51:51.919Z,12.10
2023-03-21T00:54:22.518Z,9.65
2023-03-21T00:56:52.888Z,7.70
2023-03-21T00:59:25.764Z,7.05
2023-03-21T01:01:56.889Z,8.10
2023-03-21T01:04:27.283Z,7.45
2023-03-21T01:06:58.174Z,7.25
2023-03-21T01:09:28.595Z,9.00
2023-03-21T01:11:58.919Z,9.40
2023-03-21T01:14:32.530Z,10.45
2023-03-21T01:17:02.891Z,10.10
2023-03-21T01:19:50.327Z,13.80
2023-03-21T01:22:21.764Z,16.90
2023-03-21T01:24:58.554Z,10.98
2023-03-21T01:27:33.676Z,11.93
2023-03-21T01:30:17.388Z,17.95
2023-03-21T01:32:50.208Z,12.73
2023-03-21T01:35:20.795Z,11.77
2023-03-21T01:37:51.778Z,9.38
2023-03-21T01:40:25.038Z,10.23
2023-03-21T01:43:01.566Z,8.35
2023-03-21T01:46:01.829Z,6.85
2023-03-21T01:48:57.275Z,6.25
2023-03-21T01:51:30.255Z,9.57
2023-03-21T01:54:02.126Z,5.38
2023-03-21T01:56:37.919Z,8.15
2023-03-21T01:59:23.026Z,9.63
2023-03-21T02:02:18.062Z,6.70
2023-03-21T02:05:05.645Z,6.93
2023-03-21T02:07:41.955Z,6.82
2023-03-21T02:10:15.349Z,6.72
2023-03-21T02:12:50.250Z,7.18
2023-03-21T02:15:20.817Z,13.90
2023-03-21T02:18:13.237Z,7.07
2023-03-21T02:21:35.005Z,9.60
2023-03-21T02:24:46.250Z,9.13
2023-03-21T02:27:22.038Z,8.10
2023-03-21T02:30:30.435Z,14.30
2023-03-21T02:33:27.932Z,6.38
2023-03-21T02:36:19.999Z,13.13
2023-03-21T02:38:59.005Z,9.65
2023-03-21T02:41:40.445Z,7.60
2023-03-21T02:44:22.297Z,10.15
2023-03-21T02:47:05.510Z,9.48
2023-03-21T02:49:45.443Z,8.50
2023-03-21T02:52:37.472Z,8.07
2023-03-21T02:55:19.055Z,7.35
2023-03-21T02:57:59.251Z,6.80
2023-03-21T03:00:36.247Z,6.10
2023-03-21T03:03:12.711Z,10.40
2023-03-21T03:05:53.502Z,4.15
2023-03-21T03:08:45.193Z,8.80
2023-03-21T03:11:32.006Z,8.60
2023-03-21T03:14:56.460Z,10.88
2023-03-21T03:17:27.947Z,6.68
2023-03-21T03:20:17.018Z,6.10
2023-03-21T03:22:59.173Z,4.78
2023-03-21T03:25:42.605Z,6.82
2023-03-21T03:28:24.828Z,7.43
2023-03-21T03:31:08.595Z,6.03
2023-03-21T03:33:55.740Z,6.95
2023-03-21T03:36:34.489Z,5.78
2023-03-21T03:39:19.019Z,7.35
2023-03-21T03:42:12.449Z,6.18
2023-03-21T03:44:55.986Z,7.78
2023-03-21T03:47:37.826Z,5.85
2023-03-21T03:50:18.436Z,11.48
2023-03-21T03:52:57.216Z,8.30
2023-03-21T03:55:34.784Z,5.38
2023-03-21T03:58:23.829Z,7.28
2023-03-21T04:00:59.343Z,7.22
2023-03-21T04:03:39.280Z,7.93
2023-03-21T04:06:16.646Z,7.90
2023-03-21T04:08:47.440Z,8.88
2023-03-21T04:11:18.585Z,11.00
2023-03-21T04:13:53.673Z,6.93
2023-03-21T04:16:33.395Z,9.15
2023-03-21T04:19:05.504Z,4.28
2023-03-21T04:21:35.826Z,6.13
2023-03-21T04:24:07.570Z,7.60
2023-03-21T04:26:38.315Z,8.18
2023-03-21T04:29:29.933Z,7.05
2023-03-21T04:32:06.371Z,5.00
2023-03-21T04:34:40.436Z,7.38
2023-03-21T04:37:12.208Z,11.40
2023-03-21T04:39:46.464Z,4.38
2023-03-21T04:42:18.612Z,7.72
2023-03-21T04:44:49.254Z,7.70
2023-03-21T04:47:23.131Z,7.80
2023-03-21T04:49:54.064Z,8.73
2023-03-21T04:52:25.423Z,4.53
2023-03-21T04:54:56.288Z,9.65
2023-03-21T04:57:27.188Z,6.47
2023-03-21T04:59:57.534Z,4.22
2023-03-21T05:02:30.394Z,7.90
2023-03-21T05:05:00.608Z,10.80
2023-03-21T05:07:32.811Z,7.90
2023-03-21T05:10:03.345Z,7.50
2023-03-21T05:12:34.177Z,9.07
2023-03-21T05:15:04.593Z,10.35
2023-03-21T05:17:37.467Z,5.32
2023-03-21T05:20:09.822Z,7.25
2023-03-21T05:22:41.464Z,8.48
2023-03-21T05:25:18.551Z,9.15
2023-03-21T05:28:04.532Z,13.40
2023-03-21T05:30:36.627Z,10.30
2023-03-21T05:33:10.585Z,10.23
2023-03-21T05:35:41.345Z,8.00
2023-03-21T05:38:14.141Z,11.68
2023-03-21T05:40:57.504Z,9.60
2023-03-21T05:43:28.403Z,7.68
2023-03-21T05:45:59.224Z,7.28
2023-03-21T05:48:35.726Z,16.77
2023-03-21T05:51:20.414Z,10.27
2023-03-21T05:53:52.009Z,7.50
2023-03-21T05:56:22.810Z,8.07
2023-03-21T05:59:00.473Z,8.93
2023-03-21T06:01:31.764Z,11.98
2023-03-21T06:04:14.161Z,12.20
2023-03-21T06:06:44.556Z,10.85
2023-03-21T06:09:15.442Z,10.88
2023-03-21T06:11:53.682Z,7.65
2023-03-21T06:14:29.663Z,12.70
2023-03-21T06:17:23.334Z,10.65
2023-03-21T06:20:05.044Z,8.27
2023-03-21T06:22:41.437Z,9.75
2023-03-21T06:25:13.169Z,8.75
2023-03-21T06:27:44.305Z,7.13
2023-03-21T06:30:16.233Z,7.40
2023-03-21T06:32:58.795Z,11.13
2023-03-21T06:35:32.370Z,9.77
2023-03-21T06:38:02.822Z,12.20
2023-03-21T06:40:36.135Z,8.82
2023-03-21T06:43:06.413Z,12.60
2023-03-21T06:45:37.351Z,8.18
2023-03-21T06:48:09.443Z,9.57
2023-03-21T06:50:55.374Z,12.48
2023-03-21T06:53:30.215Z,7.65
2023-03-21T06:56:19.992Z,11.20
2023-03-21T06:58:51.795Z,10.90
2023-03-21T07:01:41.074Z,10.15
2023-03-21T07:04:12.524Z,7.93
2023-03-21T07:06:45.527Z,10.70
2023-03-21T07:09:17.960Z,13.98
2023-03-21T07:11:50.483Z,9.88
2023-03-21T07:14:20.852Z,10.82
2023-03-21T07:16:51.594Z,9.98
2023-03-21T07:19:22.532Z,11.15
2023-03-21T07:21:55.660Z,10.23
2023-03-21T07:24:26.237Z,8.55
2023-03-21T07:26:56.751Z,9.25
2023-03-21T07:29:27.022Z,11.15
2023-03-21T07:31:57.323Z,9.15
2023-03-21T07:34:33.269Z,14.65
2023-03-21T07:37:10.002Z,8.57
2023-03-21T07:39:40.555Z,8.02
2023-03-21T07:42:12.300Z,7.38
2023-03-21T07:44:43.296Z,7.15
2023-03-21T07:47:13.669Z,8.13
2023-03-21T07:49:43.975Z,8.50
2023-03-21T07:52:17.011Z,9.27
2023-03-21T07:54:48.089Z,5.55
2023-03-21T07:57:18.602Z,7.10
2023-03-21T07:59:48.872Z,5.93
2023-03-21T08:02:20.595Z,5.50
2023-03-21T08:04:51.346Z,6.10
2023-03-21T08:07:28.054Z,5.88
2023-03-21T08:12:28.593Z,4.28
2023-03-21T08:15:01.069Z,4.20
2023-03-21T08:17:31.881Z,5.13
2023-03-21T08:20:02.177Z,3.08
2023-03-21T08:22:35.898Z,3.72
2023-03-21T08:25:08.207Z,7.13
2023-03-21T08:27:38.621Z,7.25
2023-03-21T08:30:10.455Z,5.13
2023-03-21T08:32:42.326Z,4.90
2023-03-21T08:35:16.118Z,5.13
2023-03-21T08:37:49.220Z,5.20
2023-03-21T08:40:21.348Z,5.20
2023-03-21T08:42:52.580Z,3.35
2023-03-21T08:45:23.776Z,4.63
2023-03-21T08:47:54.307Z,8.43
2023-03-21T08:50:28.058Z,4.10
2023-03-21T08:53:01.313Z,2.65
2023-03-21T08:55:33.316Z,6.03
2023-03-21T08:58:03.932Z,3.97
2023-03-21T09:00:34.420Z,3.85
2023-03-21T09:03:05.243Z,5.45
2023-03-21T09:05:36.859Z,2.85
2023-03-21T09:08:10.271Z,4.75
2023-03-21T09:10:40.621Z,5.00
2023-03-21T09:13:11.007Z,5.93
2023-03-21T09:15:41.473Z,6.72
2023-03-21T09:18:16.178Z,7.47
2023-03-21T09:20:48.307Z,8.43
2023-03-21T09:23:21.805Z,9.63
2023-03-21T09:25:52.276Z,8.68
2023-03-21T09:28:25.181Z,8.75
2023-03-21T09:30:55.559Z,9.68
2023-03-21T09:33:26.354Z,7.40
2023-03-21T09:35:57.805Z,6.00
2023-03-21T09:38:36.753Z,4.22
2023-03-21T09:41:17.280Z,10.43
2023-03-21T09:43:59.727Z,10.77
2023-03-21T09:46:37.754Z,8.25
2023-03-21T09:49:10.779Z,7.82
2023-03-21T09:51:46.251Z,8.07
2023-03-21T09:54:25.178Z,5.07
2023-03-21T09:56:58.977Z,16.25
2023-03-21T09:59:36.683Z,7.15
2023-03-21T10:02:17.668Z,9.80
2023-03-21T10:04:48.857Z,12.00
2023-03-21T10:07:20.093Z,10.45
2023-03-21T10:09:54.067Z,6.28
2023-03-21T10:12:30.677Z,10.27
2023-03-21T10:15:05.673Z,9.90
2023-03-21T10:17:41.350Z,15.02
2023-03-21T10:20:18.425Z,12.93
2023-03-21T10:22:50.949Z,7.85
2023-03-21T10:25:27.627Z,7.75
2023-03-21T10:27:58.093Z,6.95
2023-03-21T10:30:35.196Z,7.93
2023-03-21T10:33:10.453Z,9.68
2023-03-21T10:35:42.168Z,7.97
2023-03-21T10:38:18.900Z,9.13
2023-03-21T10:40:52.015Z,9.68
2023-03-21T10:43:37.919Z,8.95
2023-03-21T10:46:16.158Z,14.05
2023-03-21T10:48:48.400Z,10.77
2023-03-21T10:51:22.269Z,8.43
2023-03-21T10:53:56.905Z,10.13
2023-03-21T10:56:32.884Z,11.00
2023-03-21T10:59:04.426Z,6.70
2023-03-21T11:01:40.433Z,11.77
2023-03-21T11:04:15.823Z,10.10
2023-03-21T11:06:49.068Z,8.52
2023-03-21T11:09:23.287Z,8.75
2023-03-21T11:11:57.743Z,10.18
2023-03-21T11:14:40.693Z,7.10
2023-03-21T11:17:25.908Z,5.93
2023-03-21T11:19:59.725Z,9.13
2023-03-21T11:22:33.519Z,7.47
2023-03-21T11:25:06.365Z,5.70
2023-03-21T11:27:39.316Z,4.88
2023-03-21T11:30:24.873Z,8.43
2023-03-21T11:32:58.567Z,9.65
2023-03-21T11:35:35.906Z,7.53
2023-03-21T11:38:07.624Z,11.32
2023-03-21T11:40:39.974Z,5.97
2023-03-21T11:43:32.051Z,11.38
2023-03-21T11:46:08.160Z,7.80
2023-03-21T11:48:42.850Z,12.63
2023-03-21T11:51:25.984Z,8.35
2023-03-21T11:54:05.000Z,11.88
2023-03-21T11:56:39.708Z,11.57
2023-03-21T11:59:35.601Z,9.25
2023-03-21T12:02:20.699Z,10.65
2023-03-21T12:04:57.249Z,6.75
2023-03-21T12:07:55.692Z,8.95
2023-03-21T12:10:42.208Z,10.75
2023-03-21T12:13:31.307Z,7.60
2023-03-21T12:16:12.628Z,8.52
2023-03-21T12:19:13.059Z,8.18
2023-03-21T12:21:53.917Z,9.68
2023-03-21T12:24:28.072Z,8.88
2023-03-21T12:27:03.927Z,13.18
2023-03-21T12:29:54.215Z,14.98
2023-03-21T12:32:41.133Z,7.25
2023-03-21T12:35:23.605Z,5.18
2023-03-21T12:38:02.944Z,8.95
2023-03-21T12:40:45.901Z,10.82
2023-03-21T12:43:29.980Z,8.65
2023-03-21T12:46:04.094Z,13.38
2023-03-21T12:48:44.222Z,13.05
2023-03-21T12:51:17.901Z,8.65
2023-03-21T12:54:02.003Z,7.85
2023-03-21T12:56:37.023Z,8.10
2023-03-21T12:59:16.855Z,8.88
2023-03-21T13:01:50.304Z,9.48
2023-03-21T13:04:41.083Z,13.60
2023-03-21T13:07:14.534Z,11.27
2023-03-21T13:09:45.771Z,12.32
2023-03-21T13:12:38.146Z,12.90
2023-03-21T13:15:35.869Z,10.32
2023-03-21T13:18:17.132Z,10.70
2023-03-21T13:20:54.741Z,7.97
2023-03-21T13:23:26.047Z,8.88
2023-03-21T13:26:00.615Z,9.93
2023-03-21T13:28:33.239Z,4.78
2023-03-21T13:31:20.974Z,11.57
2023-03-21T13:33:53.487Z,8.63
2023-03-21T13:36:32.013Z,7.10
2023-03-21T13:39:07.162Z,11.65
2023-03-21T13:41:41.434Z,9.55
2023-03-21T13:44:31.178Z,8.00
2023-03-21T13:47:12.900Z,9.15
2023-03-21T13:50:11.053Z,6.57
2023-03-21T13:53:15.605Z,10.48
2023-03-21T13:55:55.465Z,8.93
2023-03-21T13:58:34.470Z,10.88
2023-03-21T14:01:16.377Z,8.50
2023-03-21T14:03:48.967Z,8.05
2023-03-21T14:06:21.567Z,7.85
2023-03-21T14:08:56.056Z,13.27
2023-03-21T14:11:26.712Z,6.95
2023-03-21T14:13:59.051Z,17.33
2023-03-21T14:16:31.343Z,12.13
2023-03-21T14:19:05.684Z,8.95
2023-03-21T14:21:38.196Z,9.65
2023-03-21T14:24:16.321Z,12.57
2023-03-21T14:26:49.458Z,10.52
2023-03-21T14:29:26.897Z,7.78
2023-03-21T14:32:00.309Z,10.50
2023-03-21T14:34:35.340Z,9.00
2023-03-21T14:37:10.039Z,9.73
2023-03-21T14:39:43.321Z,17.05
2023-03-21T14:42:21.119Z,12.05
2023-03-21T14:44:55.905Z,12.75
2023-03-21T14:47:28.797Z,10.80
2023-03-21T14:50:01.186Z,16.92
2023-03-21T14:52:35.080Z,12.73
2023-03-21T14:55:17.227Z,14.77
2023-03-21T14:57:48.018Z,10.02
2023-03-21T15:00:25.246Z,11.85
2023-03-21T15:02:56.791Z,7.53
2023-03-21T15:05:31.582Z,13.93
2023-03-21T15:08:04.061Z,13.90
2023-03-21T15:10:38.681Z,9.20
2023-03-21T15:13:25.337Z,10.70
2023-03-21T15:15:58.757Z,11.43
2023-03-21T15:18:32.197Z,12.60
2023-03-21T15:21:06.840Z,15.18
2023-03-21T15:23:39.988Z,10.40
2023-03-21T15:26:17.865Z,10.18
2023-03-21T15:28:50.034Z,9.48
2023-03-21T15:31:22.317Z,8.93
2023-03-21T15:33:55.054Z,7.13
2023-03-21T15:36:29.046Z,8.65
2023-03-21T15:38:59.493Z,10.35
2023-03-21T15:41:34.821Z,10.13
2023-03-21T15:44:14.492Z,13.10
2023-03-21T15:46:47.954Z,11.05
2023-03-21T15:49:25.285Z,9.70
2023-03-21T15:52:00.288Z,10.82
2023-03-21T15:54:33.036Z,10.60
2023-03-21T15:57:09.741Z,13.15
2023-03-21T15:59:44.236Z,9.27
2023-03-21T16:02:20.920Z,10.32
2023-03-21T16:05:05.454Z,7.30
2023-03-21T16:07:37.951Z,6.47
2023-03-21T16:10:20.058Z,12.75
2023-03-21T16:12:53.239Z,15.63
2023-03-21T16:15:23.961Z,12.32
2023-03-21T16:17:57.621Z,8.57
2023-03-21T16:20:32.761Z,11.23
2023-03-21T16:23:04.225Z,15.32
2023-03-21T16:25:35.924Z,8.20
2023-03-21T16:28:13.588Z,7.00
2023-03-21T16:30:43.948Z,16.70
2023-03-21T16:33:14.980Z,13.40
2023-03-21T16:35:45.314Z,9.75
2023-03-21T16:38:16.400Z,15.57
2023-03-21T16:40:47.158Z,9.30
2023-03-21T16:43:20.366Z,11.02
2023-03-21T16:45:50.910Z,12.00
2023-03-21T16:48:21.312Z,10.32
2023-03-21T16:50:51.929Z,11.07
2023-03-21T16:53:22.252Z,8.13
2023-03-21T16:55:54.145Z,9.27
2023-03-21T16:58:29.106Z,13.27
2023-03-21T17:01:01.267Z,14.95
2023-03-21T17:03:31.899Z,14.05
2023-03-21T17:06:06.147Z,10.75
2023-03-21T17:08:36.562Z,8.93
2023-03-21T17:11:08.321Z,9.82
2023-03-21T17:13:41.960Z,15.75
2023-03-21T17:16:14.476Z,18.65
2023-03-21T17:18:45.210Z,19.15
2023-03-21T17:24:10.568Z,14.52
2023-03-21T17:26:40.955Z,16.02
2023-03-21T17:29:15.131Z,10.48
2023-03-21T17:31:47.568Z,15.23
2023-03-21T17:34:18.041Z,12.63
2023-03-21T17:36:50.562Z,13.23
2023-03-21T17:39:24.381Z,13.48
2023-03-21T17:41:55.438Z,13.60
2023-03-21T17:44:28.559Z,17.90
2023-03-21T17:46:58.961Z,14.43
2023-03-21T17:49:29.276Z,14.82
2023-03-21T17:51:59.673Z,14.30
2023-03-21T17:54:30.039Z,16.50
2023-03-21T17:57:00.820Z,13.27
2023-03-21T17:59:33.818Z,16.83
2023-03-21T18:02:04.234Z,13.05
2023-03-21T18:04:34.653Z,20.38
2023-03-21T18:07:06.940Z,12.52
2023-03-21T18:09:41.640Z,22.08
2023-03-21T18:12:12.183Z,17.75
2023-03-21T18:14:45.784Z,17.08
2023-03-21T18:17:18.635Z,25.50
2023-03-21T18:19:50.444Z,17.05
2023-03-21T18:22:21.137Z,14.13
2023-03-21T18:24:51.520Z,13.60
2023-03-21T18:27:22.637Z,12.23
2023-03-21T18:32:46.578Z,11.98
2023-03-21T18:35:19.811Z,16.02
2023-03-21T18:37:50.615Z,15.52
2023-03-21T18:40:24.160Z,15.82
2023-03-21T18:43:41.676Z,13.10
2023-03-21T18:45:47.579Z,15.48
2023-03-21T18:48:18.395Z,13.35
2023-03-21T18:50:49.208Z,12.27
2023-03-21T18:53:22.386Z,15.32
2023-03-21T18:55:53.703Z,13.65
2023-03-21T18:58:24.299Z,13.30
2023-03-21T19:00:57.501Z,14.93
2023-03-21T19:03:36.681Z,17.10
2023-03-21T19:06:08.808Z,17.70
2023-03-21T19:08:41.784Z,24.15
2023-03-21T19:11:12.346Z,16.45
2023-03-21T19:13:43.052Z,14.88
2023-03-21T19:16:17.903Z,12.63
2023-03-21T19:18:54.774Z,20.27
2023-03-21T19:21:27.502Z,14.90
2023-03-21T19:24:28.900Z,15.30
2023-03-21T19:26:48.741Z,18.10
2023-03-21T19:29:19.210Z,19.35
2023-03-21T19:31:52.619Z,16.27
2023-03-21T19:34:23.615Z,16.20
2023-03-21T19:36:54.638Z,14.88
2023-03-21T19:39:26.207Z,14.55
2023-03-21T19:42:14.763Z,13.95
2023-03-21T19:44:46.272Z,14.55
2023-03-21T19:47:20.750Z,14.18
2023-03-21T19:52:44.639Z,12.30
2023-03-21T19:55:15.577Z,15.63
2023-03-21T19:57:48.638Z,16.80
2023-03-21T20:00:20.031Z,13.52
2023-03-21T20:02:53.322Z,27.30
2023-03-21T20:05:25.748Z,11.43
2023-03-21T20:07:57.316Z,13.63
2023-03-21T20:10:28.820Z,15.90
2023-03-21T20:12:59.697Z,15.75
2023-03-21T20:15:30.860Z,15.43
2023-03-21T20:18:06.562Z,16.23
2023-03-21T20:20:38.664Z,14.13
2023-03-21T20:23:11.369Z,17.73
2023-03-21T20:25:47.451Z,15.02
2023-03-21T20:28:25.889Z,16.07
2023-03-21T20:31:02.041Z,16.27
2023-03-21T20:33:36.139Z,18.65
2023-03-21T20:36:38.561Z,19.67
2023-03-21T20:38:59.473Z,13.82
2023-03-21T20:41:33.414Z,16.17
2023-03-21T20:44:41.606Z,18.20
2023-03-21T20:47:07.190Z,15.60
2023-03-21T20:49:40.385Z,12.68
2023-03-21T20:55:01.671Z,21.42
2023-03-21T20:57:34.163Z,19.15
2023-03-21T21:00:10.228Z,23.75
2023-03-21T21:02:40.926Z,21.70
2023-03-21T21:05:28.110Z,10.77
2023-03-21T21:07:59.319Z,15.43
2023-03-21T21:10:29.775Z,14.18
2023-03-21T21:13:00.095Z,15.38
2023-03-21T21:15:30.420Z,14.05
2023-03-21T21:18:06.203Z,18.67
2023-03-21T21:23:13.585Z,14.90
2023-03-21T21:25:44.131Z,14.95
2023-03-21T21:28:15.033Z,18.42
2023-03-21T21:30:45.511Z,24.63
2023-03-21T21:33:18.086Z,13.02
2023-03-21T21:35:51.279Z,13.70
2023-03-21T21:38:22.331Z,18.77
2023-03-21T21:40:54.279Z,19.30
2023-03-21T21:43:24.602Z,14.90
2023-03-21T21:45:55.047Z,16.42
2023-03-21T21:48:25.853Z,17.75
2023-03-21T21:50:59.247Z,16.80
2023-03-21T21:53:29.676Z,17.98
2023-03-21T21:56:02.071Z,15.18
2023-03-21T21:58:33.821Z,16.20
2023-03-21T22:01:04.913Z,14.60
2023-03-21T22:03:36.867Z,23.33
2023-03-21T22:06:11.553Z,19.00
2023-03-21T22:08:47.268Z,16.42
2023-03-21T22:11:18.765Z,19.63
2023-03-21T22:13:49.724Z,18.33
2023-03-21T22:16:20.201Z,13.98
2023-03-21T22:18:50.569Z,13.40
2023-03-21T22:21:23.733Z,16.55
2023-03-21T22:23:54.170Z,15.98
2023-03-21T22:26:25.432Z,15.60
2023-03-21T22:28:55.760Z,19.73
2023-03-21T22:31:26.574Z,19.23
2023-03-21T22:33:56.977Z,14.88
2023-03-21T22:36:29.995Z,20.38
2023-03-21T22:39:00.575Z,20.58
2023-03-21T22:41:30.950Z,23.52
2023-03-21T22:44:01.562Z,14.13
2023-03-21T22:46:37.431Z,17.48
2023-03-21T22:49:11.413Z,18.80
2023-03-21T22:51:45.676Z,20.65
2023-03-21T22:54:17.386Z,17.23
2023-03-21T22:56:49.550Z,19.55
2023-03-21T22:59:21.526Z,18.52
2023-03-21T23:01:53.967Z,19.63
2023-03-21T23:04:26.588Z,23.48
2023-03-21T23:07:01.819Z,16.50
2023-03-21T23:09:34.445Z,19.25
2023-03-21T23:12:06.903Z,17.92
2023-03-21T23:14:39.648Z,16.67
2023-03-21T23:17:12.742Z,21.40
2023-03-21T23:19:44.664Z,15.40
2023-03-21T23:22:18.625Z,11.60
2023-03-21T23:24:51.810Z,15.07
2023-03-21T23:27:24.651Z,16.60
2023-03-21T23:29:59.047Z,18.23
2023-03-21T23:32:31.473Z,13.90
2023-03-21T23:35:03.267Z,12.10
2023-03-21T23:37:37.790Z,15.68
2023-03-21T23:40:13.342Z,14.63
2023-03-21T23:42:45.366Z,23.60
2023-03-21T23:45:19.706Z,19.10
2023-03-21T23:47:53.780Z,18.98
2023-03-21T23:50:26.207Z,12.63
2023-03-21T23:53:01.209Z,20.77
2023-03-21T23:55:32.229Z,20.00
2023-03-21T23:58:04.576Z,17.42
